Time;durP1;ratioP1;P1;durP2;ratioP2;P2;SDS_P1;SDS_P2;PMS_P1;PMS_P2;Temp;Humidity;BMP_temperature;BMP_pressure;BME280_temperature;BME280_humidity;BME280_pressure;Samples;Min_cycle;Max_cycle;Signal;HPM_P1;HPM_P2
2022/01/07 00:00:17;;;;;;;15.52;5.55;;;2.90;76.60;;;;;;5020725;28;20825;-74
2022/01/07 00:02:49;;;;;;;12.77;5.00;;;2.90;77.10;;;;;;5022950;28;20071;-74
2022/01/07 00:05:15;;;;;;;11.85;4.72;;;2.80;77.40;;;;;;5043042;28;20068;-74
2022/01/07 00:07:41;;;;;;;12.10;5.28;;;2.80;77.30;;;;;;5031826;28;20067;-74
2022/01/07 00:10:10;;;;;;;15.47;5.90;;;2.80;77.90;;;;;;5022836;28;20045;-74
2022/01/07 00:12:36;;;;;;;12.77;4.78;;;2.70;78.10;;;;;;5038674;28;20044;-74
2022/01/07 00:15:03;;;;;;;11.57;4.67;;;2.70;78.20;;;;;;5022717;28;20665;-74
2022/01/07 00:17:28;;;;;;;12.15;5.03;;;2.70;78.40;;;;;;5030241;28;20044;-74
2022/01/07 00:19:56;;;;;;;12.47;5.50;;;2.70;78.70;;;;;;5033178;28;20051;-73
2022/01/07 00:22:22;;;;;;;15.57;5.10;;;2.70;79.00;;;;;;5017458;28;20098;-73
2022/01/07 00:24:48;;;;;;;20.63;5.75;;;2.70;79.00;;;;;;5032592;28;20041;-73
2022/01/07 00:27:14;;;;;;;13.17;4.90;;;2.70;79.20;;;;;;5023392;28;20039;-73
2022/01/07 00:29:40;;;;;;;9.57;4.90;;;2.60;79.50;;;;;;5028174;28;20032;-74
2022/01/07 00:32:06;;;;;;;13.90;5.40;;;2.70;79.70;;;;;;5027418;28;20040;-73
2022/01/07 00:34:32;;;;;;;12.07;5.63;;;2.70;79.70;;;;;;5009508;28;20386;-74
2022/01/07 00:36:57;;;;;;;12.87;5.70;;;2.70;79.10;;;;;;5036676;28;20045;-74
2022/01/07 00:39:23;;;;;;;11.93;4.83;;;2.80;79.00;;;;;;5035277;28;20067;-74
2022/01/07 00:41:49;;;;;;;12.73;5.40;;;2.70;79.30;;;;;;5047842;28;20093;-73
2022/01/07 00:44:15;;;;;;;12.93;5.53;;;2.80;79.20;;;;;;5040431;28;20501;-73
2022/01/07 00:46:41;;;;;;;11.93;5.93;;;2.80;78.80;;;;;;5038511;28;20095;-73
2022/01/07 00:49:06;;;;;;;13.03;5.50;;;2.80;79.00;;;;;;5039140;28;20029;-73
2022/01/07 00:51:32;;;;;;;16.23;6.50;;;2.80;79.10;;;;;;5036072;28;20037;-73
2022/01/07 00:53:58;;;;;;;15.83;6.13;;;2.80;78.90;;;;;;5032641;28;20480;-73
2022/01/07 00:56:24;;;;;;;13.93;5.70;;;2.80;79.00;;;;;;5021766;28;20742;-73
2022/01/07 00:58:49;;;;;;;15.73;6.10;;;2.80;79.00;;;;;;5021118;28;20140;-73
2022/01/07 01:01:15;;;;;;;15.77;6.03;;;2.80;79.00;;;;;;5048559;28;20059;-73
2022/01/07 01:03:41;;;;;;;12.53;6.80;;;2.80;79.20;;;;;;5026630;28;20047;-73
2022/01/07 01:06:07;;;;;;;14.30;7.23;;;2.70;79.30;;;;;;5029498;28;20111;-73
2022/01/07 01:08:32;;;;;;;11.20;7.20;;;2.80;79.20;;;;;;5022692;28;20364;-74
2022/01/07 01:10:58;;;;;;;16.70;7.67;;;2.80;79.20;;;;;;5009953;28;20041;-74
2022/01/07 01:13:24;;;;;;;18.23;7.30;;;2.80;79.30;;;;;;5004933;28;20048;-73
2022/01/07 01:15:50;;;;;;;13.77;7.93;;;2.70;79.80;;;;;;5045452;28;20072;-73
2022/01/07 01:18:15;;;;;;;16.00;8.57;;;2.70;80.00;;;;;;5008767;28;20110;-73
2022/01/07 01:20:41;;;;;;;20.33;9.77;;;2.70;80.30;;;;;;5011903;28;20110;-74
2022/01/07 01:23:07;;;;;;;16.10;8.70;;;2.70;80.30;;;;;;5024178;28;20041;-74
2022/01/07 01:25:33;;;;;;;15.53;8.90;;;2.60;80.40;;;;;;5041069;28;20045;-73
2022/01/07 01:27:59;;;;;;;19.20;10.10;;;2.60;81.00;;;;;;5037034;28;20550;-74
2022/01/07 01:30:28;;;;;;;15.77;9.13;;;2.60;81.00;;;;;;5045592;28;20079;-74
2022/01/07 01:32:54;;;;;;;19.27;10.48;;;2.60;81.00;;;;;;5003638;28;20764;-74
2022/01/07 01:35:20;;;;;;;16.35;9.98;;;2.60;81.10;;;;;;5017527;28;20493;-73
2022/01/07 01:37:49;;;;;;;13.75;10.15;;;2.60;80.90;;;;;;5041217;28;20056;-74
2022/01/07 01:40:17;;;;;;;18.50;10.15;;;2.60;80.90;;;;;;5016040;28;20600;-73
2022/01/07 01:42:43;;;;;;;16.80;10.63;;;2.60;80.80;;;;;;5021761;28;20049;-74
2022/01/07 01:45:10;;;;;;;17.83;10.20;;;2.60;81.20;;;;;;5019712;28;20084;-73
2022/01/07 01:47:36;;;;;;;18.10;10.32;;;2.60;81.20;;;;;;5034501;28;20060;-73
2022/01/07 01:50:05;;;;;;;16.77;10.15;;;2.60;81.10;;;;;;5022661;28;20045;-73
2022/01/07 01:52:31;;;;;;;15.95;10.27;;;2.60;80.90;;;;;;5031430;28;20033;-73
2022/01/07 01:54:57;;;;;;;15.67;9.97;;;2.50;81.30;;;;;;5026963;28;20089;-73
2022/01/07 01:57:22;;;;;;;18.10;10.87;;;2.50;81.30;;;;;;5034773;28;20076;-73
2022/01/07 01:59:49;;;;;;;17.00;10.33;;;2.50;81.30;;;;;;5028248;28;20416;-74
2022/01/07 02:02:14;;;;;;;17.25;10.60;;;2.50;81.90;;;;;;5013245;28;20091;-74
2022/01/07 02:04:40;;;;;;;20.13;10.97;;;2.50;81.60;;;;;;5033823;28;20041;-74
2022/01/07 02:07:08;;;;;;;16.03;10.53;;;2.50;81.80;;;;;;5009457;28;20091;-74
2022/01/07 02:09:35;;;;;;;16.35;10.77;;;2.40;82.30;;;;;;5031749;28;20036;-74
2022/01/07 02:12:06;;;;;;;16.60;10.57;;;2.40;82.30;;;;;;5031271;28;20049;-74
2022/01/07 02:14:34;;;;;;;15.77;9.70;;;2.40;82.40;;;;;;5000664;28;20043;-74
2022/01/07 02:17:08;;;;;;;14.70;9.35;;;2.30;82.10;;;;;;5032396;28;20043;-74
2022/01/07 02:19:35;;;;;;;16.73;9.70;;;2.20;82.30;;;;;;5018986;28;20429;-73
2022/01/07 02:22:01;;;;;;;15.00;8.23;;;2.20;82.20;;;;;;5036829;28;20174;-74
2022/01/07 02:24:27;;;;;;;14.93;9.50;;;2.20;82.50;;;;;;5018916;28;20159;-74
2022/01/07 02:26:53;;;;;;;13.83;8.97;;;2.10;82.80;;;;;;5029586;28;20489;-74
2022/01/07 02:29:19;;;;;;;13.73;9.53;;;2.10;82.60;;;;;;5041119;28;20071;-74
2022/01/07 02:31:44;;;;;;;15.17;10.00;;;2.10;83.00;;;;;;5038104;28;20542;-73
2022/01/07 02:34:10;;;;;;;15.33;10.47;;;2.10;83.10;;;;;;5024765;28;20054;-74
2022/01/07 02:36:36;;;;;;;17.97;9.87;;;2.00;83.50;;;;;;5027261;28;20048;-74
2022/01/07 02:39:02;;;;;;;14.53;11.03;;;2.00;83.70;;;;;;5011190;28;20515;-74
2022/01/07 02:41:28;;;;;;;15.77;10.77;;;2.00;83.80;;;;;;5020409;28;20041;-73
2022/01/07 02:43:53;;;;;;;16.47;10.50;;;2.10;83.80;;;;;;5012557;28;20063;-74
2022/01/07 02:46:19;;;;;;;14.80;10.33;;;2.10;83.90;;;;;;5024778;28;20049;-73
2022/01/07 02:48:45;;;;;;;18.63;11.13;;;2.10;83.80;;;;;;5031282;28;20164;-73
2022/01/07 02:51:11;;;;;;;19.87;10.70;;;2.10;84.00;;;;;;5022421;28;20439;-73
2022/01/07 02:53:36;;;;;;;14.80;11.20;;;2.20;83.80;;;;;;5009301;28;20045;-74
2022/01/07 02:56:02;;;;;;;13.90;10.37;;;2.20;83.80;;;;;;5038470;28;20043;-74
2022/01/07 02:58:28;;;;;;;20.83;10.97;;;2.20;83.90;;;;;;5022076;28;20045;-74
2022/01/07 03:00:54;;;;;;;17.77;11.17;;;2.20;83.90;;;;;;5012505;28;20175;-74
2022/01/07 03:03:19;;;;;;;17.03;11.17;;;2.20;84.00;;;;;;5035906;28;20049;-74
2022/01/07 03:05:45;;;;;;;16.43;11.83;;;2.20;84.10;;;;;;5010977;28;20056;-74
2022/01/07 03:08:11;;;;;;;20.23;11.80;;;2.20;84.00;;;;;;5016601;28;20029;-74
2022/01/07 03:10:36;;;;;;;18.03;12.50;;;2.20;83.90;;;;;;5024786;28;20033;-74
2022/01/07 03:13:03;;;;;;;18.50;11.67;;;2.20;84.00;;;;;;5012258;28;20037;-74
2022/01/07 03:15:34;;;;;;;23.70;12.57;;;2.20;83.90;;;;;;5032511;28;20611;-74
2022/01/07 03:18:00;;;;;;;18.80;12.52;;;2.30;83.90;;;;;;5025295;28;20124;-74
2022/01/07 03:20:26;;;;;;;19.38;12.13;;;2.30;83.90;;;;;;5004443;28;20041;-74
2022/01/07 03:22:52;;;;;;;18.92;11.88;;;2.30;84.00;;;;;;5018611;28;20060;-73
2022/01/07 03:25:19;;;;;;;19.00;12.10;;;2.30;83.90;;;;;;5035926;28;20048;-74
2022/01/07 03:27:45;;;;;;;19.55;11.90;;;2.30;84.10;;;;;;5035739;28;20048;-74
2022/01/07 03:30:13;;;;;;;18.23;11.73;;;2.40;83.90;;;;;;5030528;28;20382;-74
2022/01/07 03:32:39;;;;;;;17.35;11.80;;;2.40;83.90;;;;;;5035404;28;20501;-73
2022/01/07 03:35:09;;;;;;;17.42;11.30;;;2.40;83.80;;;;;;5025418;28;20548;-74
2022/01/07 03:37:36;;;;;;;16.05;11.70;;;2.40;83.90;;;;;;5037704;28;20041;-74
2022/01/07 03:40:03;;;;;;;16.00;11.75;;;2.50;83.90;;;;;;5023470;28;20057;-73
2022/01/07 03:42:29;;;;;;;19.38;11.43;;;2.40;83.90;;;;;;5018684;28;20552;-74
2022/01/07 03:44:54;;;;;;;17.13;11.70;;;2.40;84.00;;;;;;5021744;28;20052;-74
2022/01/07 03:47:20;;;;;;;16.93;12.07;;;2.40;84.20;;;;;;5040994;28;20040;-74
2022/01/07 03:49:46;;;;;;;17.47;11.93;;;2.50;83.90;;;;;;5044285;28;20495;-74
2022/01/07 03:52:11;;;;;;;22.07;13.00;;;2.50;83.90;;;;;;5038379;28;20410;-74
2022/01/07 03:54:37;;;;;;;17.50;11.90;;;2.50;83.80;;;;;;5001676;28;20048;-74
2022/01/07 03:57:03;;;;;;;17.40;11.97;;;2.50;83.80;;;;;;5017150;28;20524;-74
2022/01/07 03:59:30;;;;;;;16.70;11.83;;;2.50;84.10;;;;;;5005357;28;20041;-74
2022/01/07 04:01:55;;;;;;;17.23;12.38;;;2.50;83.80;;;;;;5006196;28;20742;-73
2022/01/07 04:04:21;;;;;;;15.77;11.73;;;2.50;83.50;;;;;;5015244;28;20041;-74
2022/01/07 04:06:47;;;;;;;15.50;12.30;;;2.50;83.50;;;;;;5020574;28;20036;-74
2022/01/07 04:09:13;;;;;;;16.00;12.00;;;2.50;83.60;;;;;;5032422;28;20040;-74
2022/01/07 04:11:38;;;;;;;21.40;13.70;;;2.50;83.30;;;;;;5043884;28;20539;-74
2022/01/07 04:14:04;;;;;;;18.53;12.73;;;2.60;83.50;;;;;;5018015;28;20561;-74
2022/01/07 04:16:30;;;;;;;19.30;12.73;;;2.60;83.60;;;;;;5038034;28;20040;-74
2022/01/07 04:18:55;;;;;;;18.03;12.57;;;2.50;83.70;;;;;;5023610;28;20045;-74
2022/01/07 04:21:21;;;;;;;17.00;13.00;;;2.60;83.60;;;;;;5021568;28;20052;-73
2022/01/07 04:23:47;;;;;;;18.60;13.30;;;2.60;83.40;;;;;;5023268;28;20528;-73
2022/01/07 04:26:12;;;;;;;20.53;13.43;;;2.60;83.60;;;;;;5035372;28;20060;-73
2022/01/07 04:28:38;;;;;;;19.77;13.20;;;2.60;83.50;;;;;;4992300;28;20029;-73
2022/01/07 04:31:04;;;;;;;19.27;14.20;;;2.60;83.70;;;;;;5043504;28;20095;-73
2022/01/07 04:33:32;;;;;;;19.87;13.73;;;2.60;83.70;;;;;;5045326;28;20676;-74
2022/01/07 04:35:58;;;;;;;18.95;13.95;;;2.60;83.60;;;;;;5014563;28;20048;-73
2022/01/07 04:38:24;;;;;;;19.98;14.48;;;2.60;83.90;;;;;;5030330;28;20040;-73
2022/01/07 04:40:50;;;;;;;17.67;13.32;;;2.60;83.60;;;;;;5029234;28;20128;-73
2022/01/07 04:43:17;;;;;;;19.75;13.70;;;2.60;83.70;;;;;;5022777;28;20120;-73
2022/01/07 04:45:43;;;;;;;22.08;14.75;;;2.70;83.70;;;;;;5032876;28;20058;-73
2022/01/07 04:48:09;;;;;;;22.55;13.93;;;2.70;83.90;;;;;;5017220;28;20045;-73
2022/01/07 04:50:36;;;;;;;19.70;13.95;;;2.70;84.00;;;;;;5034161;28;20533;-73
2022/01/07 04:53:02;;;;;;;17.40;13.95;;;2.70;84.00;;;;;;5042862;28;20041;-73
2022/01/07 04:55:35;;;;;;;16.85;12.32;;;2.70;84.00;;;;;;5043258;28;20165;-73
2022/01/07 04:58:02;;;;;;;21.38;13.75;;;2.80;83.70;;;;;;5033199;28;20128;-73
2022/01/07 05:00:27;;;;;;;20.00;13.52;;;2.80;83.90;;;;;;5017261;28;20036;-73
2022/01/07 05:02:53;;;;;;;26.10;12.80;;;2.80;83.90;;;;;;5030894;28;20111;-73
2022/01/07 05:05:19;;;;;;;20.90;13.23;;;2.80;83.80;;;;;;5017784;28;20030;-73
2022/01/07 05:07:45;;;;;;;20.20;14.33;;;2.80;83.50;;;;;;5045052;28;20032;-73
2022/01/07 05:10:12;;;;;;;17.73;12.57;;;2.90;83.50;;;;;;5018825;28;20037;-73
2022/01/07 05:12:38;;;;;;;17.55;13.73;;;2.80;83.80;;;;;;5028493;28;20048;-73
2022/01/07 05:15:06;;;;;;;23.45;14.80;;;2.90;83.80;;;;;;5035996;28;20110;-73
2022/01/07 05:17:33;;;;;;;22.23;13.68;;;2.90;83.90;;;;;;5029109;28;20091;-73
2022/01/07 05:19:58;;;;;;;24.67;14.82;;;2.90;83.80;;;;;;5030670;28;20129;-73
2022/01/07 05:22:24;;;;;;;23.67;15.17;;;2.90;84.00;;;;;;5030524;28;20456;-74
2022/01/07 05:24:50;;;;;;;23.10;15.27;;;2.90;84.20;;;;;;5014148;28;20125;-73
2022/01/07 05:27:16;;;;;;;25.05;15.25;;;2.90;83.90;;;;;;5022515;28;20033;-74
2022/01/07 05:29:42;;;;;;;27.35;15.13;;;2.90;84.10;;;;;;5019576;28;20037;-73
2022/01/07 05:32:08;;;;;;;25.53;15.33;;;2.90;84.00;;;;;;5023733;28;20059;-73
2022/01/07 05:34:34;;;;;;;22.67;14.93;;;2.90;84.30;;;;;;5045402;28;20041;-73
2022/01/07 05:37:00;;;;;;;22.37;15.27;;;2.90;84.10;;;;;;5022621;28;20049;-73
2022/01/07 05:39:26;;;;;;;22.63;14.80;;;2.90;84.10;;;;;;5033116;28;20045;-74
2022/01/07 05:41:52;;;;;;;21.67;15.57;;;2.90;84.30;;;;;;5039987;28;20060;-74
2022/01/07 05:44:18;;;;;;;26.80;16.10;;;3.00;84.30;;;;;;5008453;28;20061;-74
2022/01/07 05:46:44;;;;;;;22.80;16.00;;;3.00;84.40;;;;;;5029523;28;20864;-74
2022/01/07 05:49:10;;;;;;;26.40;15.43;;;3.00;84.30;;;;;;5014786;28;20033;-74
2022/01/07 05:51:36;;;;;;;24.45;15.95;;;3.00;84.50;;;;;;5042790;28;20041;-74
2022/01/07 05:54:02;;;;;;;23.70;16.33;;;3.00;84.30;;;;;;5017276;28;20528;-74
2022/01/07 05:56:28;;;;;;;23.67;16.10;;;3.00;84.60;;;;;;5027541;28;20037;-74
2022/01/07 05:58:53;;;;;;;19.73;15.00;;;3.00;84.60;;;;;;5002937;28;20041;-74
2022/01/07 06:01:19;;;;;;;22.47;15.63;;;3.00;84.70;;;;;;5043733;28;20041;-74
2022/01/07 06:03:45;;;;;;;19.47;15.47;;;3.10;84.60;;;;;;5009113;28;20053;-74
2022/01/07 06:06:11;;;;;;;22.10;15.32;;;3.10;84.90;;;;;;5035371;28;20071;-74
2022/01/07 06:08:37;;;;;;;20.70;15.70;;;3.10;84.70;;;;;;5010648;28;20874;-74
2022/01/07 06:11:03;;;;;;;22.48;16.20;;;3.10;84.90;;;;;;4995107;28;20124;-74
2022/01/07 06:13:29;;;;;;;19.65;15.18;;;3.10;84.80;;;;;;5026324;28;20029;-74
2022/01/07 06:15:55;;;;;;;22.77;15.90;;;3.20;84.70;;;;;;4999056;28;20046;-74
2022/01/07 06:18:20;;;;;;;21.63;14.67;;;3.20;84.60;;;;;;5022872;28;20116;-74
2022/01/07 06:20:46;;;;;;;20.53;16.27;;;3.20;84.70;;;;;;5012998;28;20400;-74
2022/01/07 06:23:12;;;;;;;21.00;15.67;;;3.20;84.60;;;;;;5023471;28;20086;-74
2022/01/07 06:25:38;;;;;;;23.00;16.60;;;3.20;84.80;;;;;;5009724;28;20048;-74
2022/01/07 06:28:04;;;;;;;23.73;16.25;;;3.20;84.80;;;;;;5010286;28;20034;-74
2022/01/07 06:30:30;;;;;;;20.52;15.73;;;3.20;84.80;;;;;;5016224;28;20215;-74
2022/01/07 06:32:55;;;;;;;21.93;16.67;;;3.30;84.90;;;;;;5019027;28;20164;-74
2022/01/07 06:35:21;;;;;;;26.00;17.20;;;3.30;84.80;;;;;;5034179;28;20049;-74
2022/01/07 06:37:47;;;;;;;22.13;17.27;;;3.30;84.80;;;;;;4993003;28;20128;-74
2022/01/07 06:40:13;;;;;;;26.90;17.03;;;3.30;84.90;;;;;;5000241;28;20165;-74
2022/01/07 06:42:39;;;;;;;23.57;16.33;;;3.30;84.80;;;;;;5020752;28;20118;-74
2022/01/07 06:45:06;;;;;;;22.58;17.08;;;3.20;85.00;;;;;;5026723;28;20143;-74
2022/01/07 06:47:33;;;;;;;23.50;17.25;;;3.20;84.80;;;;;;5025276;28;20037;-74
2022/01/07 06:49:59;;;;;;;27.38;18.15;;;3.20;85.00;;;;;;5034928;28;20040;-74
2022/01/07 06:52:25;;;;;;;25.45;18.08;;;3.20;85.00;;;;;;5031404;28;20036;-73
2022/01/07 06:54:51;;;;;;;27.90;18.88;;;3.10;85.30;;;;;;5045890;28;20045;-74
2022/01/07 06:57:16;;;;;;;23.30;18.43;;;3.10;85.30;;;;;;5027598;28;20051;-74
2022/01/07 06:59:45;;;;;;;28.37;19.17;;;3.10;85.40;;;;;;5022196;28;20041;-74
2022/01/07 07:02:10;;;;;;;27.73;18.95;;;3.10;85.50;;;;;;5021464;28;20085;-74
2022/01/07 07:04:36;;;;;;;26.57;18.97;;;3.10;85.60;;;;;;5028976;28;20077;-74
2022/01/07 07:07:02;;;;;;;25.43;18.47;;;3.00;85.50;;;;;;5008502;28;20095;-74
2022/01/07 07:09:27;;;;;;;31.50;19.87;;;3.00;85.50;;;;;;5026237;28;20034;-74
2022/01/07 07:11:53;;;;;;;29.67;19.10;;;2.90;85.70;;;;;;5014934;28;20386;-74
2022/01/07 07:14:19;;;;;;;28.87;19.67;;;2.80;85.90;;;;;;4988054;28;20095;-74
2022/01/07 07:16:44;;;;;;;33.90;19.40;;;2.90;86.00;;;;;;5027408;28;20037;-74
2022/01/07 07:19:10;;;;;;;30.57;20.77;;;2.90;86.20;;;;;;5011704;28;20123;-74
2022/01/07 07:21:36;;;;;;;34.20;21.30;;;2.90;86.30;;;;;;5023869;28;20049;-74
2022/01/07 07:24:03;;;;;;;34.13;21.90;;;3.00;86.30;;;;;;4999208;28;20041;-74
2022/01/07 07:26:28;;;;;;;36.40;21.33;;;3.00;86.30;;;;;;5037065;28;20041;-74
2022/01/07 07:28:54;;;;;;;31.13;19.63;;;3.10;86.20;;;;;;5049490;28;20490;-74
2022/01/07 07:31:20;;;;;;;35.33;20.27;;;3.00;86.10;;;;;;5030766;28;20046;-74
2022/01/07 07:36:32;;;;;;;30.97;20.83;;;3.00;86.30;;;;;;5000904;28;20406;-74
2022/01/07 07:39:01;;;;;;;39.30;22.05;;;3.00;86.30;;;;;;5034539;28;20071;-74
2022/01/07 07:41:27;;;;;;;34.17;21.63;;;3.00;86.20;;;;;;5029756;28;20493;-74
2022/01/07 07:43:56;;;;;;;33.67;20.48;;;3.00;86.10;;;;;;5037844;28;20067;-74
2022/01/07 07:46:22;;;;;;;35.67;21.30;;;2.90;86.30;;;;;;5033101;28;20116;-74
2022/01/07 07:48:48;;;;;;;37.17;21.85;;;2.90;86.30;;;;;;5018511;28;20155;-74
2022/01/07 07:51:15;;;;;;;33.57;21.23;;;2.90;86.50;;;;;;5006271;28;20120;-74
2022/01/07 07:53:41;;;;;;;34.53;21.60;;;2.90;86.60;;;;;;5027429;28;20083;-74
2022/01/07 07:56:10;;;;;;;38.85;21.85;;;2.90;86.60;;;;;;5019871;28;20401;-74
2022/01/07 07:58:36;;;;;;;38.90;22.50;;;2.90;86.70;;;;;;5035781;28;20052;-74
2022/01/07 08:01:02;;;;;;;39.20;21.27;;;2.90;86.80;;;;;;5019672;28;20505;-73
2022/01/07 08:03:28;;;;;;;39.10;21.77;;;2.90;86.80;;;;;;5036238;28;20122;-74
2022/01/07 08:05:53;;;;;;;38.87;21.37;;;2.90;86.70;;;;;;5034269;28;20037;-75
2022/01/07 08:08:19;;;;;;;34.43;21.00;;;2.90;86.90;;;;;;5024482;28;20077;-74
2022/01/07 08:10:49;;;;;;;42.03;21.90;;;2.90;86.90;;;;;;5038389;28;20636;-74
2022/01/07 08:15:59;;;;;;;42.78;21.08;;;3.10;87.10;;;;;;5038180;28;20564;-74
2022/01/07 08:18:29;;;;;;;37.83;20.90;;;3.10;87.10;;;;;;5029316;28;20370;-74
2022/01/07 08:20:59;;;;;;;41.05;21.45;;;3.10;87.00;;;;;;5043860;28;20072;-74
2022/01/07 08:23:24;;;;;;;36.83;21.40;;;3.10;86.70;;;;;;5020745;28;20041;-74
2022/01/07 08:25:50;;;;;;;35.63;19.73;;;3.10;86.70;;;;;;5042574;28;20146;-74
2022/01/07 08:28:17;;;;;;;41.27;20.63;;;3.10;87.00;;;;;;5015701;28;20280;-74
2022/01/07 08:31:00;;;;;;;37.22;20.02;;;3.10;86.90;;;;;;5018999;28;20673;-74
2022/01/07 08:36:17;;;;;;;39.78;20.88;;;3.20;87.00;;;;;;5018326;28;20044;-74
2022/01/07 08:38:44;;;;;;;33.35;20.13;;;3.20;87.00;;;;;;5021329;28;20041;-74
2022/01/07 08:41:10;;;;;;;41.17;22.65;;;3.20;87.00;;;;;;5020209;28;20168;-74
2022/01/07 08:43:37;;;;;;;37.90;21.33;;;3.20;87.00;;;;;;5026079;28;20132;-74
2022/01/07 08:46:05;;;;;;;45.42;21.73;;;3.20;87.00;;;;;;5027977;28;20307;-74
2022/01/07 08:48:31;;;;;;;41.30;21.48;;;3.20;87.10;;;;;;5025537;28;20041;-74
2022/01/07 08:50:57;;;;;;;44.17;22.75;;;3.20;87.00;;;;;;5026892;28;20040;-74
2022/01/07 08:53:23;;;;;;;37.13;21.10;;;3.20;87.10;;;;;;5039622;28;20037;-74
2022/01/07 08:55:49;;;;;;;38.10;21.83;;;3.20;87.20;;;;;;5039349;28;20043;-74
2022/01/07 08:58:15;;;;;;;41.80;22.33;;;3.20;87.00;;;;;;5042815;28;20090;-74
2022/01/07 09:00:40;;;;;;;44.00;23.77;;;3.20;86.90;;;;;;5032015;28;20246;-73
2022/01/07 09:03:06;;;;;;;40.70;22.23;;;3.20;86.90;;;;;;5011826;28;20041;-74
2022/01/07 09:05:32;;;;;;;43.53;22.57;;;3.20;87.10;;;;;;5025212;28;20033;-74
2022/01/07 09:07:58;;;;;;;39.63;21.35;;;3.30;87.20;;;;;;5034180;28;20849;-74
2022/01/07 09:10:24;;;;;;;39.77;22.20;;;3.30;87.10;;;;;;5020489;28;20048;-74
2022/01/07 09:12:50;;;;;;;39.75;21.15;;;3.30;87.10;;;;;;5038809;28;20524;-74
2022/01/07 09:15:16;;;;;;;29.33;16.40;;;3.40;87.20;;;;;;5019801;28;20110;-74
2022/01/07 09:17:42;;;;;;;29.03;13.83;;;3.50;86.70;;;;;;5040997;28;20044;-74
2022/01/07 09:20:09;;;;;;;25.52;11.63;;;3.50;86.30;;;;;;5029218;28;20046;-74
2022/01/07 09:22:36;;;;;;;18.45;9.35;;;3.50;85.50;;;;;;5029186;28;20066;-73
2022/01/07 09:25:06;;;;;;;19.38;6.95;;;3.50;85.00;;;;;;5028883;28;20044;-74
2022/01/07 09:27:33;;;;;;;12.43;6.03;;;3.50;84.30;;;;;;5029583;28;20045;-74
2022/01/07 09:29:59;;;;;;;14.55;7.03;;;3.50;84.00;;;;;;5026562;28;20036;-74
2022/01/07 09:32:25;;;;;;;19.63;9.03;;;3.50;83.90;;;;;;5022596;28;20032;-74
2022/01/07 09:34:50;;;;;;;21.63;11.73;;;3.50;84.20;;;;;;5038758;28;20131;-74
2022/01/07 09:37:17;;;;;;;25.77;14.97;;;3.60;84.80;;;;;;5007368;28;20464;-74
2022/01/07 09:39:42;;;;;;;25.85;15.13;;;3.70;84.90;;;;;;5035187;28;20052;-74
2022/01/07 09:42:09;;;;;;;25.67;15.43;;;3.80;84.80;;;;;;5014948;28;20052;-74
2022/01/07 09:44:42;;;;;;;23.48;14.10;;;3.90;84.90;;;;;;5027360;28;20570;-74
2022/01/07 09:47:13;;;;;;;22.98;12.75;;;4.10;85.00;;;;;;5031814;28;20041;-74
2022/01/07 09:49:40;;;;;;;20.55;11.20;;;4.20;84.30;;;;;;5030520;28;20060;-73
2022/01/07 09:52:06;;;;;;;17.80;8.48;;;4.20;83.40;;;;;;5005072;28;20502;-75
2022/01/07 09:54:38;;;;;;;16.23;6.97;;;4.20;82.90;;;;;;5029567;28;20517;-74
2022/01/07 09:57:06;;;;;;;12.05;5.15;;;4.20;83.10;;;;;;5013468;28;20491;-74
2022/01/07 09:59:36;;;;;;;12.82;5.72;;;4.10;81.80;;;;;;5013587;28;20029;-73
2022/01/07 10:02:07;;;;;;;10.35;4.68;;;4.10;82.60;;;;;;5026671;28;20174;-73
2022/01/07 10:04:42;;;;;;;11.38;5.45;;;4.10;83.30;;;;;;5028308;28;20439;-74
2022/01/07 10:07:22;;;;;;;12.70;5.35;;;4.00;82.60;;;;;;5000202;28;20478;-73
2022/01/07 10:09:58;;;;;;;9.38;5.25;;;4.00;82.70;;;;;;5005746;28;20157;-74
2022/01/07 10:12:25;;;;;;;13.82;6.22;;;3.90;83.00;;;;;;5018081;28;20278;-74
2022/01/07 10:15:15;;;;;;;13.48;6.43;;;3.80;82.60;;;;;;5038437;28;20045;-74
2022/01/07 10:17:52;;;;;;;13.15;7.22;;;3.80;83.20;;;;;;5015327;28;20059;-73
2022/01/07 10:20:23;;;;;;;12.88;7.20;;;3.80;83.50;;;;;;5024157;28;20045;-74
2022/01/07 10:22:53;;;;;;;15.77;7.72;;;3.90;83.60;;;;;;5023504;28;20099;-74
2022/01/07 10:25:25;;;;;;;14.00;7.97;;;4.00;83.30;;;;;;5041150;28;20374;-74
2022/01/07 10:27:51;;;;;;;16.52;8.45;;;4.10;83.50;;;;;;5042795;28;20135;-74
2022/01/07 10:30:25;;;;;;;15.95;7.90;;;4.20;82.80;;;;;;5021912;28;20112;-74
2022/01/07 10:32:55;;;;;;;20.08;8.50;;;4.20;82.60;;;;;;5009162;28;20069;-74
2022/01/07 10:35:23;;;;;;;16.63;8.27;;;4.10;83.10;;;;;;5018253;28;20053;-74
2022/01/07 10:37:50;;;;;;;18.27;8.60;;;4.10;82.90;;;;;;5028378;28;20068;-73
2022/01/07 10:40:22;;;;;;;15.52;8.07;;;4.10;83.00;;;;;;5028170;28;20531;-74
2022/01/07 10:42:48;;;;;;;18.98;8.38;;;4.10;83.20;;;;;;5022795;28;20041;-74
2022/01/07 10:45:14;;;;;;;16.77;7.23;;;4.10;82.90;;;;;;5040631;28;20499;-74
2022/01/07 10:47:40;;;;;;;16.43;7.13;;;4.20;83.00;;;;;;5009870;28;20063;-74
2022/01/07 10:50:23;;;;;;;16.50;7.60;;;4.20;83.30;;;;;;5022918;28;20071;-74
2022/01/07 10:52:50;;;;;;;15.38;6.65;;;4.30;82.90;;;;;;5036848;28;20128;-74
2022/01/07 10:55:21;;;;;;;19.33;6.40;;;4.40;82.70;;;;;;5021836;28;20053;-73
2022/01/07 10:57:51;;;;;;;15.75;6.65;;;4.40;82.80;;;;;;5043205;28;20041;-73
2022/01/07 11:00:19;;;;;;;17.77;7.95;;;4.50;82.60;;;;;;5044012;28;20044;-73
2022/01/07 11:02:45;;;;;;;22.00;10.23;;;4.50;82.60;;;;;;5030521;28;20038;-73
2022/01/07 11:05:12;;;;;;;24.88;13.00;;;4.50;82.70;;;;;;5009940;28;20091;-73
2022/01/07 11:07:38;;;;;;;24.60;13.13;;;4.60;82.80;;;;;;5029275;28;20123;-73
2022/01/07 11:10:06;;;;;;;23.50;13.95;;;4.60;82.90;;;;;;5048205;28;20037;-74
2022/01/07 11:12:33;;;;;;;25.42;14.48;;;4.70;83.10;;;;;;5031110;28;20045;-74
2022/01/07 11:15:00;;;;;;;25.92;13.93;;;4.70;83.50;;;;;;5030617;28;20066;-73
2022/01/07 11:17:27;;;;;;;22.25;11.60;;;4.80;82.90;;;;;;5032462;28;20053;-73
2022/01/07 11:19:58;;;;;;;23.63;11.20;;;5.00;83.20;;;;;;5002598;28;20084;-73
2022/01/07 11:22:24;;;;;;;27.38;9.70;;;5.10;82.60;;;;;;5044282;28;20045;-73
2022/01/07 11:25:10;;;;;;;21.80;8.48;;;5.00;81.50;;;;;;5023785;28;20531;-73
2022/01/07 11:27:57;;;;;;;21.45;9.55;;;5.00;82.10;;;;;;5046064;28;20056;-73
2022/01/07 11:30:28;;;;;;;19.00;8.30;;;4.90;81.20;;;;;;5040738;28;20036;-74
2022/01/07 11:32:54;;;;;;;18.17;7.88;;;4.80;80.80;;;;;;5047828;28;20045;-74
2022/01/07 11:35:20;;;;;;;21.35;7.93;;;4.80;81.30;;;;;;5028535;28;20040;-74
2022/01/07 11:37:51;;;;;;;17.63;8.13;;;4.70;81.60;;;;;;5042532;28;20807;-73
2022/01/07 11:40:31;;;;;;;13.98;7.93;;;4.60;81.50;;;;;;5018405;28;20045;-73
2022/01/07 11:42:58;;;;;;;20.95;8.07;;;4.70;82.60;;;;;;5049769;28;20113;-73
2022/01/07 11:45:34;;;;;;;17.20;5.65;;;4.80;82.80;;;;;;5033321;28;20132;-74
2022/01/07 11:48:10;;;;;;;14.50;5.22;;;4.80;81.80;;;;;;5012705;28;20041;-74
2022/01/07 11:50:54;;;;;;;10.88;3.97;;;4.80;80.50;;;;;;5051142;28;20049;-73
2022/01/07 11:53:25;;;;;;;11.77;3.53;;;4.90;80.00;;;;;;5033368;28;20045;-74
2022/01/07 11:55:57;;;;;;;11.30;2.00;;;4.80;78.40;;;;;;5049043;28;20116;-74
2022/01/07 11:58:41;;;;;;;5.75;1.77;;;4.80;78.00;;;;;;5023265;28;20034;-74
2022/01/07 12:01:25;;;;;;;8.18;1.90;;;4.70;77.50;;;;;;5051567;28;20500;-74
2022/01/07 12:03:56;;;;;;;10.57;2.08;;;4.60;78.60;;;;;;5046309;28;20049;-74
2022/01/07 12:06:28;;;;;;;9.35;2.25;;;4.60;78.40;;;;;;5052964;28;20504;-73
2022/01/07 12:09:10;;;;;;;9.00;1.60;;;4.60;79.20;;;;;;5038627;28;20073;-74
2022/01/07 12:11:38;;;;;;;10.27;1.88;;;4.60;79.60;;;;;;5045810;28;20115;-74
2022/01/07 12:14:14;;;;;;;9.40;1.30;;;4.60;78.70;;;;;;5031569;28;20041;-74
2022/01/07 12:16:44;;;;;;;10.45;1.58;;;4.60;78.20;;;;;;5041495;28;20044;-73
2022/01/07 12:19:20;;;;;;;9.80;2.25;;;4.60;78.00;;;;;;5028429;28;20456;-73
2022/01/07 12:21:49;;;;;;;12.93;2.08;;;4.60;78.10;;;;;;5040049;28;20041;-73
2022/01/07 12:24:17;;;;;;;8.70;1.73;;;4.60;78.40;;;;;;5043464;28;20052;-73
2022/01/07 12:26:43;;;;;;;8.85;1.40;;;4.60;77.50;;;;;;5023913;28;20037;-73
2022/01/07 12:29:20;;;;;;;10.03;1.10;;;4.60;77.60;;;;;;5031028;28;20044;-73
2022/01/07 12:31:55;;;;;;;7.93;1.35;;;4.60;77.80;;;;;;5048673;28;20840;-73
2022/01/07 12:34:43;;;;;;;11.30;1.85;;;4.50;78.20;;;;;;5028663;28;20048;-74
2022/01/07 12:37:11;;;;;;;9.80;1.50;;;4.40;77.60;;;;;;5027366;28;20148;-74
2022/01/07 12:39:40;;;;;;;7.28;1.10;;;4.40;78.90;;;;;;5039414;28;20049;-73
2022/01/07 12:42:06;;;;;;;6.93;1.00;;;4.30;78.90;;;;;;5042049;28;20048;-74
2022/01/07 12:44:57;;;;;;;5.93;1.20;;;4.30;79.50;;;;;;5045045;28;20049;-74
2022/01/07 12:47:31;;;;;;;11.88;1.40;;;4.50;79.90;;;;;;5045932;28;20037;-73
2022/01/07 12:49:58;;;;;;;8.52;1.35;;;4.60;80.10;;;;;;5040554;28;20480;-73